sensor_id;sensor_type;location;lat;lon;timestamp;P1;durP1;ratioP1;P2;durP2;ratioP2
36923;SDS011;22841;50.252;18.688;2023-04-10T00:00:29;108.10;;;52.05;;
36923;SDS011;22841;50.252;18.688;2023-04-10T00:02:57;102.32;;;50.55;;
36923;SDS011;22841;50.252;18.688;2023-04-10T00:05:25;94.55;;;49.33;;
36923;SDS011;22841;50.252;18.688;2023-04-10T00:07:52;94.63;;;47.13;;
36923;SDS011;22841;50.252;18.688;2023-04-10T00:10:18;97.47;;;50.28;;
36923;SDS011;22841;50.252;18.688;2023-04-10T00:12:44;102.18;;;51.03;;
36923;SDS011;22841;50.252;18.688;2023-04-10T00:15:10;96.20;;;48.58;;
36923;SDS011;22841;50.252;18.688;2023-04-10T00:17:37;100.03;;;49.55;;
36923;SDS011;22841;50.252;18.688;2023-04-10T00:20:03;102.90;;;50.10;;
36923;SDS011;22841;50.252;18.688;2023-04-10T00:22:29;102.55;;;50.95;;
36923;SDS011;22841;50.252;18.688;2023-04-10T00:24:55;100.20;;;49.65;;
36923;SDS011;22841;50.252;18.688;2023-04-10T00:27:21;100.03;;;49.13;;
36923;SDS011;22841;50.252;18.688;2023-04-10T00:29:48;104.03;;;49.20;;
36923;SDS011;22841;50.252;18.688;2023-04-10T00:32:14;103.70;;;50.38;;
36923;SDS011;22841;50.252;18.688;2023-04-10T00:34:40;100.95;;;49.53;;
36923;SDS011;22841;50.252;18.688;2023-04-10T00:37:06;104.55;;;49.53;;
36923;SDS011;22841;50.252;18.688;2023-04-10T00:39:32;96.18;;;48.08;;
36923;SDS011;22841;50.252;18.688;2023-04-10T00:41:58;103.30;;;49.53;;
36923;SDS011;22841;50.252;18.688;2023-04-10T00:44:25;101.60;;;48.85;;
36923;SDS011;22841;50.252;18.688;2023-04-10T00:46:52;101.05;;;49.40;;
36923;SDS011;22841;50.252;18.688;2023-04-10T00:49:18;108.00;;;52.45;;
36923;SDS011;22841;50.252;18.688;2023-04-10T00:51:44;106.05;;;50.47;;
36923;SDS011;22841;50.252;18.688;2023-04-10T00:54:11;106.95;;;50.65;;
36923;SDS011;22841;50.252;18.688;2023-04-10T00:56:37;105.68;;;51.15;;
36923;SDS011;22841;50.252;18.688;2023-04-10T00:59:04;102.55;;;51.30;;
36923;SDS011;22841;50.252;18.688;2023-04-10T01:01:30;106.22;;;51.53;;
36923;SDS011;22841;50.252;18.688;2023-04-10T01:03:56;108.28;;;50.08;;
36923;SDS011;22841;50.252;18.688;2023-04-10T01:16:33;96.70;;;49.05;;
36923;SDS011;22841;50.252;18.688;2023-04-10T01:19:06;113.03;;;51.13;;
36923;SDS011;22841;50.252;18.688;2023-04-10T01:21:34;112.32;;;51.67;;
36923;SDS011;22841;50.252;18.688;2023-04-10T01:24:20;104.78;;;51.20;;
36923;SDS011;22841;50.252;18.688;2023-04-10T01:27:28;94.80;;;48.92;;
36923;SDS011;22841;50.252;18.688;2023-04-10T01:30:17;116.85;;;54.45;;
36923;SDS011;22841;50.252;18.688;2023-04-10T01:32:46;112.95;;;53.42;;
36923;SDS011;22841;50.252;18.688;2023-04-10T01:35:13;119.47;;;53.85;;
36923;SDS011;22841;50.252;18.688;2023-04-10T01:37:41;114.55;;;53.63;;
36923;SDS011;22841;50.252;18.688;2023-04-10T01:40:13;110.85;;;52.90;;
36923;SDS011;22841;50.252;18.688;2023-04-10T01:42:43;105.82;;;50.88;;
36923;SDS011;22841;50.252;18.688;2023-04-10T01:45:17;112.93;;;54.65;;
36923;SDS011;22841;50.252;18.688;2023-04-10T01:47:46;107.13;;;49.95;;
36923;SDS011;22841;50.252;18.688;2023-04-10T01:50:12;108.68;;;51.42;;
36923;SDS011;22841;50.252;18.688;2023-04-10T01:52:39;112.03;;;53.17;;
36923;SDS011;22841;50.252;18.688;2023-04-10T01:55:07;120.95;;;53.97;;
36923;SDS011;22841;50.252;18.688;2023-04-10T01:57:34;110.00;;;51.80;;
36923;SDS011;22841;50.252;18.688;2023-04-10T02:00:01;121.72;;;53.08;;
36923;SDS011;22841;50.252;18.688;2023-04-10T02:02:31;122.30;;;54.42;;
36923;SDS011;22841;50.252;18.688;2023-04-10T02:04:58;125.47;;;53.58;;
36923;SDS011;22841;50.252;18.688;2023-04-10T02:10:53;117.90;;;52.60;;
36923;SDS011;22841;50.252;18.688;2023-04-10T02:13:06;126.45;;;51.15;;
36923;SDS011;22841;50.252;18.688;2023-04-10T02:15:34;128.65;;;53.22;;
36923;SDS011;22841;50.252;18.688;2023-04-10T02:18:01;138.15;;;54.58;;
36923;SDS011;22841;50.252;18.688;2023-04-10T02:20:31;130.68;;;54.28;;
36923;SDS011;22841;50.252;18.688;2023-04-10T02:22:58;131.55;;;52.63;;
36923;SDS011;22841;50.252;18.688;2023-04-10T02:25:31;157.85;;;56.42;;
36923;SDS011;22841;50.252;18.688;2023-04-10T02:27:57;124.15;;;53.67;;
36923;SDS011;22841;50.252;18.688;2023-04-10T02:30:32;132.00;;;53.80;;
36923;SDS011;22841;50.252;18.688;2023-04-10T02:32:58;145.55;;;55.60;;
36923;SDS011;22841;50.252;18.688;2023-04-10T02:35:25;154.82;;;57.67;;
36923;SDS011;22841;50.252;18.688;2023-04-10T02:37:53;148.07;;;58.40;;
36923;SDS011;22841;50.252;18.688;2023-04-10T02:40:19;148.15;;;58.00;;
36923;SDS011;22841;50.252;18.688;2023-04-10T02:42:45;152.70;;;57.42;;
36923;SDS011;22841;50.252;18.688;2023-04-10T02:45:11;164.43;;;60.65;;
36923;SDS011;22841;50.252;18.688;2023-04-10T02:47:37;139.65;;;53.88;;
36923;SDS011;22841;50.252;18.688;2023-04-10T02:50:04;170.00;;;57.55;;
36923;SDS011;22841;50.252;18.688;2023-04-10T02:52:30;137.00;;;53.95;;
36923;SDS011;22841;50.252;18.688;2023-04-10T02:54:56;139.45;;;54.83;;
36923;SDS011;22841;50.252;18.688;2023-04-10T02:57:22;143.68;;;54.33;;
36923;SDS011;22841;50.252;18.688;2023-04-10T02:59:49;147.40;;;52.90;;
36923;SDS011;22841;50.252;18.688;2023-04-10T03:02:18;145.00;;;55.72;;
36923;SDS011;22841;50.252;18.688;2023-04-10T03:04:44;178.18;;;59.60;;
36923;SDS011;22841;50.252;18.688;2023-04-10T03:07:10;145.20;;;56.47;;
36923;SDS011;22841;50.252;18.688;2023-04-10T03:09:36;173.73;;;59.10;;
36923;SDS011;22841;50.252;18.688;2023-04-10T03:12:02;150.25;;;57.75;;
36923;SDS011;22841;50.252;18.688;2023-04-10T03:14:28;132.40;;;55.10;;
36923;SDS011;22841;50.252;18.688;2023-04-10T03:16:54;156.00;;;54.92;;
36923;SDS011;22841;50.252;18.688;2023-04-10T03:19:20;148.48;;;54.80;;
36923;SDS011;22841;50.252;18.688;2023-04-10T03:21:47;144.70;;;52.95;;
36923;SDS011;22841;50.252;18.688;2023-04-10T03:24:13;162.93;;;56.83;;
36923;SDS011;22841;50.252;18.688;2023-04-10T03:26:39;167.15;;;53.85;;
36923;SDS011;22841;50.252;18.688;2023-04-10T03:29:06;166.60;;;53.40;;
36923;SDS011;22841;50.252;18.688;2023-04-10T03:31:32;154.55;;;55.65;;
36923;SDS011;22841;50.252;18.688;2023-04-10T03:33:58;155.38;;;54.13;;
36923;SDS011;22841;50.252;18.688;2023-04-10T03:36:24;137.80;;;52.50;;
36923;SDS011;22841;50.252;18.688;2023-04-10T03:38:51;175.52;;;55.30;;
36923;SDS011;22841;50.252;18.688;2023-04-10T03:41:17;192.38;;;58.05;;
36923;SDS011;22841;50.252;18.688;2023-04-10T03:43:43;174.68;;;56.95;;
36923;SDS011;22841;50.252;18.688;2023-04-10T03:46:09;204.93;;;60.78;;
36923;SDS011;22841;50.252;18.688;2023-04-10T03:48:35;143.57;;;51.85;;
36923;SDS011;22841;50.252;18.688;2023-04-10T03:51:02;159.80;;;56.65;;
36923;SDS011;22841;50.252;18.688;2023-04-10T03:53:28;195.05;;;60.78;;
36923;SDS011;22841;50.252;18.688;2023-04-10T03:55:54;170.45;;;56.35;;
36923;SDS011;22841;50.252;18.688;2023-04-10T03:58:20;179.20;;;56.15;;
36923;SDS011;22841;50.252;18.688;2023-04-10T04:00:46;210.73;;;60.83;;
36923;SDS011;22841;50.252;18.688;2023-04-10T04:03:12;161.57;;;54.30;;
36923;SDS011;22841;50.252;18.688;2023-04-10T04:05:39;153.15;;;55.10;;
36923;SDS011;22841;50.252;18.688;2023-04-10T04:08:05;233.50;;;59.75;;
36923;SDS011;22841;50.252;18.688;2023-04-10T04:10:31;155.63;;;56.75;;
36923;SDS011;22841;50.252;18.688;2023-04-10T04:12:57;209.93;;;56.53;;
36923;SDS011;22841;50.252;18.688;2023-04-10T04:15:23;203.88;;;60.42;;
36923;SDS011;22841;50.252;18.688;2023-04-10T04:17:50;197.95;;;57.63;;
36923;SDS011;22841;50.252;18.688;2023-04-10T04:20:16;174.18;;;57.10;;
36923;SDS011;22841;50.252;18.688;2023-04-10T04:22:42;188.10;;;58.83;;
36923;SDS011;22841;50.252;18.688;2023-04-10T04:25:08;200.70;;;58.88;;
36923;SDS011;22841;50.252;18.688;2023-04-10T04:27:36;203.85;;;58.45;;
36923;SDS011;22841;50.252;18.688;2023-04-10T04:30:02;180.82;;;55.40;;
36923;SDS011;22841;50.252;18.688;2023-04-10T04:32:30;180.10;;;55.47;;
36923;SDS011;22841;50.252;18.688;2023-04-10T04:34:56;210.65;;;59.50;;
36923;SDS011;22841;50.252;18.688;2023-04-10T04:37:22;164.43;;;57.17;;
36923;SDS011;22841;50.252;18.688;2023-04-10T04:39:48;194.18;;;59.85;;
36923;SDS011;22841;50.252;18.688;2023-04-10T04:42:14;225.00;;;57.53;;
36923;SDS011;22841;50.252;18.688;2023-04-10T04:44:40;193.07;;;58.05;;
36923;SDS011;22841;50.252;18.688;2023-04-10T04:47:06;188.80;;;57.13;;
36923;SDS011;22841;50.252;18.688;2023-04-10T04:49:32;202.63;;;59.58;;
36923;SDS011;22841;50.252;18.688;2023-04-10T04:51:58;167.40;;;54.08;;
36923;SDS011;22841;50.252;18.688;2023-04-10T04:54:24;199.48;;;58.60;;
36923;SDS011;22841;50.252;18.688;2023-04-10T04:56:50;168.57;;;52.92;;
36923;SDS011;22841;50.252;18.688;2023-04-10T04:59:16;203.68;;;58.38;;
36923;SDS011;22841;50.252;18.688;2023-04-10T05:01:42;214.27;;;57.90;;
36923;SDS011;22841;50.252;18.688;2023-04-10T05:04:08;176.45;;;55.38;;
36923;SDS011;22841;50.252;18.688;2023-04-10T05:06:35;239.23;;;59.20;;
36923;SDS011;22841;50.252;18.688;2023-04-10T05:09:01;207.50;;;59.65;;
36923;SDS011;22841;50.252;18.688;2023-04-10T05:11:27;212.65;;;55.05;;
36923;SDS011;22841;50.252;18.688;2023-04-10T05:13:53;196.50;;;57.50;;
36923;SDS011;22841;50.252;18.688;2023-04-10T05:16:20;208.73;;;56.55;;
36923;SDS011;22841;50.252;18.688;2023-04-10T05:18:46;196.25;;;55.00;;
36923;SDS011;22841;50.252;18.688;2023-04-10T05:21:12;198.07;;;55.75;;
36923;SDS011;22841;50.252;18.688;2023-04-10T05:23:38;171.63;;;55.78;;
36923;SDS011;22841;50.252;18.688;2023-04-10T05:26:04;162.63;;;55.17;;
36923;SDS011;22841;50.252;18.688;2023-04-10T05:28:30;192.50;;;55.83;;
36923;SDS011;22841;50.252;18.688;2023-04-10T05:30:56;182.15;;;56.67;;
36923;SDS011;22841;50.252;18.688;2023-04-10T05:33:22;183.75;;;54.10;;
36923;SDS011;22841;50.252;18.688;2023-04-10T05:35:49;195.60;;;57.42;;
36923;SDS011;22841;50.252;18.688;2023-04-10T05:38:15;233.00;;;58.45;;
36923;SDS011;22841;50.252;18.688;2023-04-10T05:40:43;189.38;;;54.13;;
36923;SDS011;22841;50.252;18.688;2023-04-10T05:43:10;207.63;;;57.50;;
36923;SDS011;22841;50.252;18.688;2023-04-10T05:45:36;179.60;;;55.10;;
36923;SDS011;22841;50.252;18.688;2023-04-10T05:48:02;204.13;;;58.08;;
36923;SDS011;22841;50.252;18.688;2023-04-10T05:50:28;224.68;;;60.55;;
36923;SDS011;22841;50.252;18.688;2023-04-10T05:52:54;194.30;;;59.20;;
36923;SDS011;22841;50.252;18.688;2023-04-10T05:55:20;233.23;;;61.38;;
36923;SDS011;22841;50.252;18.688;2023-04-10T05:57:46;240.50;;;62.15;;
36923;SDS011;22841;50.252;18.688;2023-04-10T06:00:12;261.38;;;64.20;;
36923;SDS011;22841;50.252;18.688;2023-04-10T06:02:40;204.63;;;60.38;;
36923;SDS011;22841;50.252;18.688;2023-04-10T06:05:06;197.80;;;56.55;;
36923;SDS011;22841;50.252;18.688;2023-04-10T06:07:33;204.32;;;56.20;;
36923;SDS011;22841;50.252;18.688;2023-04-10T06:09:59;219.50;;;58.08;;
36923;SDS011;22841;50.252;18.688;2023-04-10T06:12:25;174.85;;;56.40;;
36923;SDS011;22841;50.252;18.688;2023-04-10T06:14:51;183.88;;;53.63;;
36923;SDS011;22841;50.252;18.688;2023-04-10T06:17:17;209.80;;;57.22;;
36923;SDS011;22841;50.252;18.688;2023-04-10T06:19:45;177.27;;;55.78;;
36923;SDS011;22841;50.252;18.688;2023-04-10T06:22:12;177.65;;;54.22;;
36923;SDS011;22841;50.252;18.688;2023-04-10T06:24:38;179.07;;;53.92;;
36923;SDS011;22841;50.252;18.688;2023-04-10T06:27:04;177.57;;;54.15;;
36923;SDS011;22841;50.252;18.688;2023-04-10T06:29:30;193.73;;;53.35;;
36923;SDS011;22841;50.252;18.688;2023-04-10T06:31:56;198.07;;;55.10;;
36923;SDS011;22841;50.252;18.688;2023-04-10T06:34:22;189.32;;;54.80;;
36923;SDS011;22841;50.252;18.688;2023-04-10T06:36:48;227.45;;;57.97;;
36923;SDS011;22841;50.252;18.688;2023-04-10T06:39:14;218.75;;;57.22;;
36923;SDS011;22841;50.252;18.688;2023-04-10T06:41:40;177.27;;;54.53;;
36923;SDS011;22841;50.252;18.688;2023-04-10T06:44:06;192.85;;;59.78;;
36923;SDS011;22841;50.252;18.688;2023-04-10T06:46:32;224.70;;;59.03;;
36923;SDS011;22841;50.252;18.688;2023-04-10T06:48:58;238.45;;;60.83;;
36923;SDS011;22841;50.252;18.688;2023-04-10T06:51:24;222.32;;;59.95;;
36923;SDS011;22841;50.252;18.688;2023-04-10T06:53:50;193.85;;;59.53;;
36923;SDS011;22841;50.252;18.688;2023-04-10T06:56:16;194.85;;;58.65;;
36923;SDS011;22841;50.252;18.688;2023-04-10T06:58:42;174.93;;;54.67;;
36923;SDS011;22841;50.252;18.688;2023-04-10T07:01:08;192.68;;;56.08;;
36923;SDS011;22841;50.252;18.688;2023-04-10T07:03:34;163.02;;;51.72;;
36923;SDS011;22841;50.252;18.688;2023-04-10T07:06:00;171.98;;;56.40;;
36923;SDS011;22841;50.252;18.688;2023-04-10T07:08:27;215.93;;;66.97;;
36923;SDS011;22841;50.252;18.688;2023-04-10T07:10:53;175.15;;;57.20;;
36923;SDS011;22841;50.252;18.688;2023-04-10T07:13:19;187.93;;;59.75;;
36923;SDS011;22841;50.252;18.688;2023-04-10T07:15:45;160.07;;;50.83;;
36923;SDS011;22841;50.252;18.688;2023-04-10T07:18:11;137.98;;;47.97;;
36923;SDS011;22841;50.252;18.688;2023-04-10T07:20:37;163.40;;;49.30;;
36923;SDS011;22841;50.252;18.688;2023-04-10T07:23:03;139.30;;;48.80;;
36923;SDS011;22841;50.252;18.688;2023-04-10T07:25:30;143.95;;;48.75;;
36923;SDS011;22841;50.252;18.688;2023-04-10T07:27:56;139.55;;;46.83;;
36923;SDS011;22841;50.252;18.688;2023-04-10T07:30:22;136.68;;;47.92;;
36923;SDS011;22841;50.252;18.688;2023-04-10T07:32:48;165.15;;;54.40;;
36923;SDS011;22841;50.252;18.688;2023-04-10T07:35:14;140.63;;;50.72;;
36923;SDS011;22841;50.252;18.688;2023-04-10T07:37:40;150.20;;;50.67;;
36923;SDS011;22841;50.252;18.688;2023-04-10T07:40:08;153.02;;;53.25;;
36923;SDS011;22841;50.252;18.688;2023-04-10T07:42:35;140.68;;;49.25;;
36923;SDS011;22841;50.252;18.688;2023-04-10T07:45:01;114.15;;;43.67;;
36923;SDS011;22841;50.252;18.688;2023-04-10T07:47:27;123.05;;;44.70;;
36923;SDS011;22841;50.252;18.688;2023-04-10T07:49:53;118.50;;;43.95;;
36923;SDS011;22841;50.252;18.688;2023-04-10T07:52:19;138.07;;;47.88;;
36923;SDS011;22841;50.252;18.688;2023-04-10T07:54:45;125.65;;;45.22;;
36923;SDS011;22841;50.252;18.688;2023-04-10T07:57:11;123.43;;;46.97;;
36923;SDS011;22841;50.252;18.688;2023-04-10T07:59:37;131.77;;;46.22;;
36923;SDS011;22841;50.252;18.688;2023-04-10T08:02:03;118.53;;;47.00;;
36923;SDS011;22841;50.252;18.688;2023-04-10T08:04:29;122.38;;;47.47;;
36923;SDS011;22841;50.252;18.688;2023-04-10T08:06:55;124.10;;;46.60;;
36923;SDS011;22841;50.252;18.688;2023-04-10T08:09:21;126.47;;;47.33;;
36923;SDS011;22841;50.252;18.688;2023-04-10T08:11:47;125.63;;;47.75;;
36923;SDS011;22841;50.252;18.688;2023-04-10T08:14:13;115.22;;;46.25;;
36923;SDS011;22841;50.252;18.688;2023-04-10T08:16:40;108.43;;;46.60;;
36923;SDS011;22841;50.252;18.688;2023-04-10T08:19:06;94.53;;;41.97;;
36923;SDS011;22841;50.252;18.688;2023-04-10T08:21:33;111.63;;;48.05;;
36923;SDS011;22841;50.252;18.688;2023-04-10T08:24:00;114.72;;;47.95;;
36923;SDS011;22841;50.252;18.688;2023-04-10T08:26:27;106.22;;;45.22;;
36923;SDS011;22841;50.252;18.688;2023-04-10T08:28:57;114.32;;;46.40;;
36923;SDS011;22841;50.252;18.688;2023-04-10T08:31:24;98.95;;;45.47;;
36923;SDS011;22841;50.252;18.688;2023-04-10T08:33:52;98.18;;;44.20;;
36923;SDS011;22841;50.252;18.688;2023-04-10T08:36:18;101.32;;;44.20;;
36923;SDS011;22841;50.252;18.688;2023-04-10T08:38:44;97.32;;;42.63;;
36923;SDS011;22841;50.252;18.688;2023-04-10T08:41:14;94.03;;;41.47;;
36923;SDS011;22841;50.252;18.688;2023-04-10T08:43:42;96.38;;;43.90;;
36923;SDS011;22841;50.252;18.688;2023-04-10T08:46:10;97.47;;;44.47;;
36923;SDS011;22841;50.252;18.688;2023-04-10T08:48:38;91.47;;;43.60;;
36923;SDS011;22841;50.252;18.688;2023-04-10T08:51:25;95.85;;;42.63;;
36923;SDS011;22841;50.252;18.688;2023-04-10T08:53:57;88.13;;;41.75;;
36923;SDS011;22841;50.252;18.688;2023-04-10T08:56:31;92.85;;;42.90;;
36923;SDS011;22841;50.252;18.688;2023-04-10T08:59:00;91.43;;;41.25;;
36923;SDS011;22841;50.252;18.688;2023-04-10T09:01:27;93.10;;;42.55;;
36923;SDS011;22841;50.252;18.688;2023-04-10T09:03:54;95.50;;;41.45;;
36923;SDS011;22841;50.252;18.688;2023-04-10T09:06:20;91.47;;;43.20;;
36923;SDS011;22841;50.252;18.688;2023-04-10T09:08:46;87.10;;;42.03;;
36923;SDS011;22841;50.252;18.688;2023-04-10T09:11:12;93.70;;;43.75;;
36923;SDS011;22841;50.252;18.688;2023-04-10T09:13:39;84.57;;;40.70;;
36923;SDS011;22841;50.252;18.688;2023-04-10T09:16:07;93.85;;;43.22;;
36923;SDS011;22841;50.252;18.688;2023-04-10T09:18:47;100.45;;;47.67;;
36923;SDS011;22841;50.252;18.688;2023-04-10T09:21:16;93.13;;;42.77;;
36923;SDS011;22841;50.252;18.688;2023-04-10T09:23:44;93.38;;;43.35;;
36923;SDS011;22841;50.252;18.688;2023-04-10T09:26:27;95.45;;;44.92;;
36923;SDS011;22841;50.252;18.688;2023-04-10T09:29:06;94.70;;;45.88;;
36923;SDS011;22841;50.252;18.688;2023-04-10T09:31:35;104.47;;;46.92;;
36923;SDS011;22841;50.252;18.688;2023-04-10T09:34:05;85.90;;;41.95;;
36923;SDS011;22841;50.252;18.688;2023-04-10T09:36:31;90.00;;;41.75;;
36923;SDS011;22841;50.252;18.688;2023-04-10T09:38:57;83.80;;;39.90;;
36923;SDS011;22841;50.252;18.688;2023-04-10T09:41:24;97.25;;;44.50;;
36923;SDS011;22841;50.252;18.688;2023-04-10T09:43:56;91.93;;;40.55;;
36923;SDS011;22841;50.252;18.688;2023-04-10T09:46:31;92.25;;;43.17;;
36923;SDS011;22841;50.252;18.688;2023-04-10T09:48:57;103.80;;;42.65;;
36923;SDS011;22841;50.252;18.688;2023-04-10T09:51:29;93.53;;;42.53;;
36923;SDS011;22841;50.252;18.688;2023-04-10T09:53:57;97.75;;;44.55;;
36923;SDS011;22841;50.252;18.688;2023-04-10T09:56:23;90.75;;;44.17;;
36923;SDS011;22841;50.252;18.688;2023-04-10T09:59:01;93.97;;;41.83;;
36923;SDS011;22841;50.252;18.688;2023-04-10T10:01:29;91.88;;;42.05;;
36923;SDS011;22841;50.252;18.688;2023-04-10T10:04:02;91.82;;;42.63;;
36923;SDS011;22841;50.252;18.688;2023-04-10T10:06:29;90.93;;;41.88;;
36923;SDS011;22841;50.252;18.688;2023-04-10T10:09:03;88.68;;;41.47;;
36923;SDS011;22841;50.252;18.688;2023-04-10T10:11:31;116.40;;;56.70;;
36923;SDS011;22841;50.252;18.688;2023-04-10T10:14:04;114.65;;;53.30;;
36923;SDS011;22841;50.252;18.688;2023-04-10T10:16:47;97.30;;;43.35;;
36923;SDS011;22841;50.252;18.688;2023-04-10T10:19:16;109.70;;;51.83;;
36923;SDS011;22841;50.252;18.688;2023-04-10T10:21:45;98.65;;;43.60;;
36923;SDS011;22841;50.252;18.688;2023-04-10T10:24:12;95.40;;;43.17;;
36923;SDS011;22841;50.252;18.688;2023-04-10T10:26:40;88.57;;;41.10;;
36923;SDS011;22841;50.252;18.688;2023-04-10T10:29:08;91.00;;;41.45;;
36923;SDS011;22841;50.252;18.688;2023-04-10T10:31:36;93.18;;;43.33;;
36923;SDS011;22841;50.252;18.688;2023-04-10T10:34:03;86.38;;;40.38;;
36923;SDS011;22841;50.252;18.688;2023-04-10T10:36:31;98.57;;;45.47;;
36923;SDS011;22841;50.252;18.688;2023-04-10T10:39:20;101.38;;;44.17;;
36923;SDS011;22841;50.252;18.688;2023-04-10T10:47:47;79.93;;;38.67;;
36923;SDS011;22841;50.252;18.688;2023-04-10T10:50:16;76.20;;;37.67;;
36923;SDS011;22841;50.252;18.688;2023-04-10T10:52:49;77.55;;;38.97;;
36923;SDS011;22841;50.252;18.688;2023-04-10T10:57:52;80.70;;;38.20;;
36923;SDS011;22841;50.252;18.688;2023-04-10T11:00:20;78.05;;;38.58;;
36923;SDS011;22841;50.252;18.688;2023-04-10T11:05:48;73.13;;;38.90;;
36923;SDS011;22841;50.252;18.688;2023-04-10T11:08:42;77.97;;;40.08;;
36923;SDS011;22841;50.252;18.688;2023-04-10T11:11:19;83.38;;;40.25;;
36923;SDS011;22841;50.252;18.688;2023-04-10T11:16:23;77.50;;;39.40;;
36923;SDS011;22841;50.252;18.688;2023-04-10T11:19:08;84.10;;;41.78;;
36923;SDS011;22841;50.252;18.688;2023-04-10T11:24:29;70.13;;;34.72;;
36923;SDS011;22841;50.252;18.688;2023-04-10T11:32:56;66.53;;;36.55;;
36923;SDS011;22841;50.252;18.688;2023-04-10T11:35:24;74.28;;;36.63;;
36923;SDS011;22841;50.252;18.688;2023-04-10T11:37:57;66.78;;;34.92;;
36923;SDS011;22841;50.252;18.688;2023-04-10T11:40:51;62.78;;;34.90;;
36923;SDS011;22841;50.252;18.688;2023-04-10T11:43:21;67.35;;;34.50;;
36923;SDS011;22841;50.252;18.688;2023-04-10T11:45:48;63.75;;;34.45;;
36923;SDS011;22841;50.252;18.688;2023-04-10T11:48:14;68.05;;;37.17;;
36923;SDS011;22841;50.252;18.688;2023-04-10T11:50:41;64.75;;;34.08;;
36923;SDS011;22841;50.252;18.688;2023-04-10T11:53:18;74.57;;;36.35;;
36923;SDS011;22841;50.252;18.688;2023-04-10T11:55:46;71.93;;;36.20;;
36923;SDS011;22841;50.252;18.688;2023-04-10T11:58:22;68.28;;;34.35;;
36923;SDS011;22841;50.252;18.688;2023-04-10T12:00:59;110.15;;;52.58;;
36923;SDS011;22841;50.252;18.688;2023-04-10T12:03:30;71.80;;;38.60;;
36923;SDS011;22841;50.252;18.688;2023-04-10T12:05:57;66.80;;;35.70;;
36923;SDS011;22841;50.252;18.688;2023-04-10T12:08:29;64.07;;;35.25;;
36923;SDS011;22841;50.252;18.688;2023-04-10T12:11:00;57.78;;;31.60;;
36923;SDS011;22841;50.252;18.688;2023-04-10T12:13:27;68.28;;;32.70;;
36923;SDS011;22841;50.252;18.688;2023-04-10T12:15:56;57.63;;;30.38;;
36923;SDS011;22841;50.252;18.688;2023-04-10T12:18:25;54.13;;;29.08;;
36923;SDS011;22841;50.252;18.688;2023-04-10T12:20:55;50.72;;;27.67;;
36923;SDS011;22841;50.252;18.688;2023-04-10T12:23:23;58.65;;;30.20;;
36923;SDS011;22841;50.252;18.688;2023-04-10T12:25:51;56.92;;;29.45;;
36923;SDS011;22841;50.252;18.688;2023-04-10T12:28:19;54.03;;;30.85;;
36923;SDS011;22841;50.252;18.688;2023-04-10T12:30:46;54.88;;;29.73;;
36923;SDS011;22841;50.252;18.688;2023-04-10T12:33:20;49.22;;;27.25;;
36923;SDS011;22841;50.252;18.688;2023-04-10T12:35:49;49.63;;;27.42;;
36923;SDS011;22841;50.252;18.688;2023-04-10T12:41:02;48.53;;;26.75;;
36923;SDS011;22841;50.252;18.688;2023-04-10T12:43:31;54.22;;;28.90;;
36923;SDS011;22841;50.252;18.688;2023-04-10T12:46:03;48.33;;;29.48;;
36923;SDS011;22841;50.252;18.688;2023-04-10T12:48:30;55.33;;;28.98;;
36923;SDS011;22841;50.252;18.688;2023-04-10T12:50:57;47.78;;;27.33;;
36923;SDS011;22841;50.252;18.688;2023-04-10T12:53:23;43.60;;;23.05;;
36923;SDS011;22841;50.252;18.688;2023-04-10T12:56:02;42.78;;;24.58;;
36923;SDS011;22841;50.252;18.688;2023-04-10T12:58:31;45.28;;;24.92;;
36923;SDS011;22841;50.252;18.688;2023-04-10T13:00:58;49.80;;;27.92;;
36923;SDS011;22841;50.252;18.688;2023-04-10T13:03:27;45.38;;;25.55;;
36923;SDS011;22841;50.252;18.688;2023-04-10T13:05:53;43.40;;;25.48;;
36923;SDS011;22841;50.252;18.688;2023-04-10T13:08:20;46.67;;;25.70;;
36923;SDS011;22841;50.252;18.688;2023-04-10T13:10:47;46.50;;;26.35;;
36923;SDS011;22841;50.252;18.688;2023-04-10T13:13:14;41.13;;;25.55;;
36923;SDS011;22841;50.252;18.688;2023-04-10T13:15:41;44.22;;;26.10;;
36923;SDS011;22841;50.252;18.688;2023-04-10T13:18:07;48.78;;;26.38;;
36923;SDS011;22841;50.252;18.688;2023-04-10T13:20:37;43.72;;;24.92;;
36923;SDS011;22841;50.252;18.688;2023-04-10T13:23:05;42.75;;;25.85;;
36923;SDS011;22841;50.252;18.688;2023-04-10T13:25:32;40.42;;;25.05;;
36923;SDS011;22841;50.252;18.688;2023-04-10T13:28:00;46.35;;;24.58;;
36923;SDS011;22841;50.252;18.688;2023-04-10T13:30:27;45.92;;;25.55;;
36923;SDS011;22841;50.252;18.688;2023-04-10T13:32:53;46.38;;;26.25;;
36923;SDS011;22841;50.252;18.688;2023-04-10T13:35:20;44.92;;;26.35;;
36923;SDS011;22841;50.252;18.688;2023-04-10T13:37:46;43.97;;;26.88;;
36923;SDS011;22841;50.252;18.688;2023-04-10T13:40:12;43.97;;;25.92;;
36923;SDS011;22841;50.252;18.688;2023-04-10T13:42:38;41.28;;;24.00;;
36923;SDS011;22841;50.252;18.688;2023-04-10T13:45:04;48.72;;;25.65;;
36923;SDS011;22841;50.252;18.688;2023-04-10T13:47:31;40.20;;;25.45;;
36923;SDS011;22841;50.252;18.688;2023-04-10T13:49:57;43.15;;;22.88;;
36923;SDS011;22841;50.252;18.688;2023-04-10T13:52:23;40.50;;;23.95;;
36923;SDS011;22841;50.252;18.688;2023-04-10T13:54:49;40.05;;;23.70;;
36923;SDS011;22841;50.252;18.688;2023-04-10T13:57:16;40.45;;;24.45;;
36923;SDS011;22841;50.252;18.688;2023-04-10T13:59:42;37.83;;;23.73;;
36923;SDS011;22841;50.252;18.688;2023-04-10T14:02:08;42.65;;;24.27;;
36923;SDS011;22841;50.252;18.688;2023-04-10T14:04:34;39.70;;;23.30;;
36923;SDS011;22841;50.252;18.688;2023-04-10T14:07:00;36.55;;;23.55;;
36923;SDS011;22841;50.252;18.688;2023-04-10T14:09:27;39.75;;;23.23;;
36923;SDS011;22841;50.252;18.688;2023-04-10T14:11:53;36.78;;;22.73;;
36923;SDS011;22841;50.252;18.688;2023-04-10T14:14:20;33.80;;;20.90;;
36923;SDS011;22841;50.252;18.688;2023-04-10T14:16:49;46.35;;;24.98;;
36923;SDS011;22841;50.252;18.688;2023-04-10T14:19:15;35.40;;;23.40;;
36923;SDS011;22841;50.252;18.688;2023-04-10T14:21:42;38.75;;;23.40;;
36923;SDS011;22841;50.252;18.688;2023-04-10T14:24:09;36.63;;;23.63;;
36923;SDS011;22841;50.252;18.688;2023-04-10T14:26:35;37.65;;;23.40;;
36923;SDS011;22841;50.252;18.688;2023-04-10T14:29:01;35.70;;;22.52;;
36923;SDS011;22841;50.252;18.688;2023-04-10T14:31:28;40.60;;;23.80;;
36923;SDS011;22841;50.252;18.688;2023-04-10T14:33:54;42.92;;;23.90;;
36923;SDS011;22841;50.252;18.688;2023-04-10T14:36:20;34.80;;;22.30;;
36923;SDS011;22841;50.252;18.688;2023-04-10T14:38:46;38.85;;;22.90;;
36923;SDS011;22841;50.252;18.688;2023-04-10T14:41:12;45.17;;;23.08;;
36923;SDS011;22841;50.252;18.688;2023-04-10T14:43:38;42.40;;;24.00;;